Flight Track Log - Related Links

Times and Time Zones

All times are in EST time to prevent confusion due to time zone crossing. See the SKP76 flight status page for this flight to view local times or setup timezone preferences in your user account.

Time Position Orientation Groundspeed Altitude Reporting Facility
EST Latitude Longitude Course Direction KTS MPH feet Rate Location/Type
Thu 10:37:03 PM -16.8600 145.7417 335° Northwest 121 139 700  Level Aus ATC (RADAR)
Thu 10:37:43 PM -16.8357 145.7301 335° Northwest 145 167 1,400 1,059 Climbing Aus ATC (RADAR)
Thu 10:38:28 PM -16.8053 145.7159 336° Northwest 155 178 2,200 1,200 Climbing Aus ATC (RADAR)
Thu 10:38:58 PM -16.7852 145.7054 334° Northwest 160 184 2,900 1,333 Climbing Aus ATC (RADAR)
Thu 10:39:13 PM -16.7757 145.7001 332° Northwest 158 182 3,200 880 Climbing Aus ATC (RADAR)
Thu 10:40:13 PM -16.7310 145.6786 335° Northwest 180 207 4,000 873 Climbing Aus ATC (RADAR)
Thu 10:41:03 PM -16.6914 145.6596 335° Northwest 188 216 4,800 933 Climbing Aus ATC (RADAR)
Thu 10:41:43 PM -16.6606 145.6429 333° Northwest 188 216 5,400 975 Climbing Aus ATC (RADAR)
Thu 10:42:23 PM -16.6308 145.6243 329° Northwest 187 215 6,100 873 Climbing Aus ATC (RADAR)
Thu 10:42:38 PM -16.6193 145.6170 329° Northwest 190 219 6,200 847 Climbing Aus ATC (RADAR)
Thu 10:43:48 PM -16.5648 145.5857 331° Northwest 192 221 7,300 892 Climbing Aus ATC (RADAR)
Thu 10:43:52 PM -16.5609 145.5833 329° Northwest 193 222 7,300 835 Level Aus ATC (RADAR)
Thu 10:45:43 PM -16.4726 145.5328 331° Northwest 199 229 8,900 838 Climbing Aus ATC (RADAR)
Thu 10:46:08 PM -16.4526 145.5216 332° Northwest 197 227 9,200 656 Climbing Aus ATC (RADAR)
Thu 10:46:47 PM -16.4195 145.5034 332° Northwest 202 232 9,600 643 Climbing Aus ATC (RADAR)
Thu 10:47:32 PM -16.3818 145.4821 332° Northwest 205 236 10,100 635 Climbing Aus ATC (RADAR)
Thu 10:48:12 PM -16.3481 145.4630 331° Northwest 208 239 10,500 565 Climbing Aus ATC (RADAR)
Thu 10:48:57 PM -16.3104 145.4409 331° Northwest 208 239 10,900 514 Climbing Aus ATC (RADAR)
Thu 10:49:22 PM -16.2890 145.4286 331° Northwest 210 242 11,100 505 Climbing Aus ATC (RADAR)
Thu 10:50:32 PM -16.2282 145.3941 331° Northwest 215 247 11,700 480 Climbing Aus ATC (RADAR)
Thu 10:51:02 PM -16.2017 145.3789 331° Northwest 217 250 11,900 491 Climbing Aus ATC (RADAR)
Thu 10:52:22 PM -16.1300 145.3385 332° Northwest 221 254 12,600 626 Climbing Aus ATC (RADAR)
Thu 10:52:57 PM -16.0998 145.3211 331° Northwest 213 245 13,100 675 Climbing Aus ATC (RADAR)
Thu 10:53:42 PM -16.0622 145.2995 331° Northwest 205 236 13,500 343 Climbing Aus ATC (RADAR)
Thu 10:54:07 PM -16.0413 145.2884 333° Northwest 203 234 13,500 300 Level Aus ATC (RADAR)
Thu 10:56:02 PM -15.9429 145.2317 331° Northwest 210 242 14,200 386 Climbing Aus ATC (RADAR)
Thu 10:56:27 PM -15.9209 145.2195 332° Northwest 213 245 14,400 450 Climbing Aus ATC (RADAR)
Thu 10:56:42 PM -15.9079 145.2120 331° Northwest 213 245 14,500 429 Climbing Aus ATC (RADAR)
Thu 10:57:37 PM -15.8601 145.1854 332° Northwest 211 243 14,900 404 Climbing Aus ATC (RADAR)
Thu 10:58:11 PM -15.8299 145.1684 332° Northwest 211 243 15,100 500 Climbing Aus ATC (RADAR)
Thu 10:59:01 PM -15.7885 145.1449 331° Northwest 203 234 15,600 560 Climbing Aus ATC (RADAR)
Thu 10:59:26 PM -15.7682 145.1335 331° Northwest 199 229 15,800 381 Climbing Aus ATC (RADAR)
Thu 11:00:04 PM -15.7397 145.1170 331° Northwest 200 230 16,000 400 Climbing Aus ATC (RADAR)
Thu 11:01:11 PM -15.6826 145.0849 332° Northwest 200 230 16,500 391 Climbing Aus ATC (RADAR)
Thu 11:01:36 PM -15.6621 145.0737 332° Northwest 200 230 16,600 295 Climbing Aus ATC (RADAR)
Thu 11:02:12 PM -15.6329 145.0585 333° Northwest 202 232 16,800 400 Climbing Aus ATC (RADAR)
Thu 11:02:36 PM -15.6124 145.0465 330° Northwest 202 232 17,000 343 Climbing Aus ATC (RADAR)
Thu 11:03:22 PM -15.5751 145.0255 332° Northwest 203 234 17,200 343 Climbing Aus ATC (RADAR)
Thu 11:04:21 PM -15.5255 144.9968 331° Northwest 203 234 17,600 353 Climbing Aus ATC (RADAR)
Thu 11:04:47 PM -15.5046 144.9846 331° Northwest 205 236 17,700 212 Climbing Aus ATC (RADAR)
Thu 11:05:46 PM -15.4537 144.9564 332° Northwest 209 241 17,900 143 Climbing Aus ATC (RADAR)
Thu 11:06:11 PM -15.4318 144.9442 332° Northwest 213 245 17,900  Level Aus ATC (RADAR)
Thu 11:06:41 PM -15.4045 144.9295 333° Northwest 220 253 17,900  Level Aus ATC (RADAR)
Thu 11:07:16 PM -15.3724 144.9111 331° Northwest 227 261 17,900  Level Aus ATC (RADAR)
Thu 11:07:41 PM -15.3492 144.8978 331° Northwest 229 264 17,900  Level Aus ATC (RADAR)
Thu 11:08:01 PM -15.3303 144.8877 333° Northwest 229 264 17,900  Level Aus ATC (RADAR)
Thu 11:08:41 PM -15.2919 144.8663 332° Northwest 234 269 17,900  Level Aus ATC (RADAR)
Thu 11:10:01 PM -15.2143 144.8222 331° Northwest 238 274 17,900  Level Aus ATC (RADAR)
Thu 11:11:15 PM -15.1428 144.7817 331° Northwest 234 269 17,900  Level Aus ATC (RADAR)
Thu 11:11:46 PM -15.1143 144.7655 331° Northwest 234 269 17,900  Level Aus ATC (RADAR)
Thu 11:12:20 PM -15.0807 144.7471 332° Northwest 232 267 17,900  Level Aus ATC (RADAR)
Thu 11:13:01 PM -15.0430 144.7260 332° Northwest 231 266 17,900  Level Aus ATC (RADAR)
Thu 11:13:26 PM -15.0191 144.7132 333° Northwest 231 266 17,900  Level Aus ATC (RADAR)
Thu 11:14:25 PM -14.9627 144.6817 332° Northwest 229 264 17,900  Level Aus ATC (RADAR)
Thu 11:15:06 PM -14.9248 144.6608 332° Northwest 231 266 17,900  Level Aus ATC (RADAR)
Thu 11:16:40 PM -14.8352 144.6106 332° Northwest 230 265 17,900  Level Aus ATC (RADAR)
Thu 11:17:00 PM -14.8163 144.5998 331° Northwest 231 266 17,900  Level Aus ATC (RADAR)
Thu 11:17:35 PM -14.7833 144.5819 332° Northwest 230 265 17,900  Level Aus ATC (RADAR)
Thu 11:17:50 PM -14.7693 144.5742 332° Northwest 227 261 17,900  Level Aus ATC (RADAR)
Thu 11:18:49 PM -14.7126 144.5417 331° Northwest 233 268 17,900  Level Aus ATC (RADAR)
Thu 11:19:39 PM -14.6658 144.5151 331° Northwest 231 266 17,900  Level Aus ATC (RADAR)
Thu 11:19:59 PM -14.6470 144.5046 332° Northwest 231 266 17,900  Level Aus ATC (RADAR)
Thu 11:20:40 PM -14.6091 144.4843 333° Northwest 230 265 17,900  Level Aus ATC (RADAR)
Thu 11:21:55 PM -14.5386 144.4447 331° Northwest 231 266 17,900  Level Aus ATC (RADAR)
Thu 11:22:19 PM -14.5148 144.4320 333° Northwest 231 266 17,900  Level Aus ATC (RADAR)
Thu 11:22:59 PM -14.4772 144.4107 331° Northwest 231 266 17,900  Level Aus ATC (RADAR)
Thu 11:23:44 PM -14.4347 144.3874 332° Northwest 230 265 17,900  Level Aus ATC (RADAR)
Thu 11:24:09 PM -14.4101 144.3772 338° Northwest 228 262 17,900  Level Aus ATC (RADAR)
Thu 11:25:09 PM -14.3516 144.3478 334° Northwest 231 266 17,900  Level Aus ATC (RADAR)
Thu 11:25:34 PM -14.3297 144.3314 324° Northwest 231 266 17,900  Level Aus ATC (RADAR)
Thu 11:26:59 PM -14.2478 144.2895 334° Northwest 234 269 17,900  Level Aus ATC (RADAR)
Thu 11:27:54 PM -14.1962 144.2587 330° Northwest 236 272 17,900  Level Aus ATC (RADAR)
Thu 11:28:29 PM -14.1623 144.2412 333° Northwest 238 274 17,900  Level Aus ATC (RADAR)
Thu 11:29:09 PM -14.1238 144.2207 333° Northwest 233 268 17,900  Level Aus ATC (RADAR)
Thu 11:29:14 PM -14.1190 144.2182 334° Northwest 233 268 17,900  Level Aus ATC (RADAR)
Thu 11:33:44 PM -13.8607 144.0729 331° Northwest 234 269 17,900  Level Aus ATC (RADAR)
Thu 11:34:13 PM -13.8338 144.0531 324° Northwest 236 272 17,900  Level Aus ATC (RADAR)
Thu 11:36:38 PM -13.6944 143.9761 332° Northwest 18,000 32 Climbing Aus ATC (Calculated)
Thu 11:37:23 PM -13.6334 143.9425 332° Northwest 18,000  Level Aus ATC (Calculated)
Thu 11:38:00 PM -13.6174 143.9337 332° Northwest  Level FlightAware Approximate
Thu 11:39:00 PM -13.5423 143.8923 332° Northwest  Level FlightAware Approximate
Thu 11:40:00 PM -13.4860 143.8613 332° Northwest  Level FlightAware Approximate
Thu 11:41:00 PM -13.4297 143.8303 332° Northwest  Level FlightAware Approximate
Thu 11:42:00 PM -13.3733 143.7993 332° Northwest  Level FlightAware Approximate
Thu 11:43:00 PM -13.3170 143.7684 332° Northwest  Level FlightAware Approximate
Thu 11:44:00 PM -13.2606 143.7374 332° Northwest  Level FlightAware Approximate
Thu 11:45:00 PM -13.2043 143.7065 332° Northwest  Level FlightAware Approximate
Thu 11:46:00 PM -13.1480 143.6756 332° Northwest  Level FlightAware Approximate
Thu 11:47:00 PM -13.0916 143.6447 332° Northwest  Level FlightAware Approximate
Thu 11:48:00 PM -13.0352 143.6138 332° Northwest  Level FlightAware Approximate
Thu 11:49:00 PM -12.9789 143.5829 332° Northwest  Level FlightAware Approximate
Thu 11:50:00 PM -12.9225 143.5520 332° Northwest  Level FlightAware Approximate
Thu 11:51:00 PM -12.8661 143.5212 332° Northwest  Level FlightAware Approximate
Thu 11:51:22 PM -12.8324 143.5027 332° Northwest 18,000  Level Aus ATC (Calculated)
Thu 11:52:00 PM -12.8098 143.4903 332° Northwest  Level FlightAware Approximate
Thu 11:53:00 PM -12.7403 143.4524 332° Northwest  Level FlightAware Approximate
Thu 11:53:00 PM -12.7149 143.4371 135° Southeast  Level Aus ATC (Calculated)
Thu 11:54:00 PM -12.7603 143.4832 135° Southeast  Level FlightAware Approximate
Thu 11:55:00 PM -12.7149 143.4371 315° West  Level FlightAware Approximate
Thu 11:56:00 PM -12.6724 143.4147 331° Northwest  Level FlightAware Approximate
Thu 11:57:00 PM -12.6163 143.3833 331° Northwest  Level FlightAware Approximate
Thu 11:58:00 PM -12.5602 143.3520 331° Northwest  Level FlightAware Approximate
Thu 11:59:00 PM -12.5041 143.3206 331° Northwest  Level FlightAware Approximate
Fri 12:00:00 AM -12.4480 143.2894 331° Northwest  Level FlightAware Approximate
Fri 12:01:00 AM -12.3919 143.2581 331° Northwest  Level FlightAware Approximate
Fri 12:02:00 AM -12.3358 143.2268 331° Northwest  Level FlightAware Approximate
Fri 12:03:00 AM -12.2796 143.1955 331° Northwest  Level FlightAware Approximate
Fri 12:04:00 AM -12.2235 143.1643 331° Northwest  Level FlightAware Approximate
Fri 12:05:00 AM -12.1674 143.1330 331° Northwest  Level FlightAware Approximate
Fri 12:06:00 AM -12.1113 143.1018 331° Northwest  Level FlightAware Approximate
Fri 12:07:00 AM -12.0552 143.0706 331° Northwest  Level FlightAware Approximate
Fri 12:08:00 AM -11.9990 143.0394 331° Northwest  Level FlightAware Approximate
Fri 12:09:00 AM -11.9429 143.0082 331° Northwest  Level FlightAware Approximate
Fri 12:10:00 AM -11.8868 142.9770 331° Northwest  Level FlightAware Approximate
Fri 12:11:00 AM -11.8306 142.9459 331° Northwest  Level FlightAware Approximate
Fri 12:12:00 AM -11.7745 142.9147 331° Northwest  Level FlightAware Approximate
Fri 12:13:00 AM -11.7183 142.8836 332° Northwest  Level FlightAware Approximate
Fri 12:14:00 AM -11.6622 142.8525 332° Northwest  Level FlightAware Approximate
Fri 12:15:00 AM -11.6060 142.8214 332° Northwest  Level FlightAware Approximate
Fri 12:16:00 AM -11.5498 142.7903 332° Northwest  Level FlightAware Approximate
Fri 12:17:00 AM -11.4937 142.7592 332° Northwest  Level FlightAware Approximate
Fri 12:18:00 AM -11.4375 142.7281 332° Northwest  Level FlightAware Approximate
Fri 12:19:00 AM -11.3813 142.6971 332° Northwest  Level FlightAware Approximate
Fri 12:19:24 AM -11.0612 142.5202 152° Southeast  Level Aus ATC (Calculated)
Fri 12:20:00 AM -11.3252 142.6660 332° Northwest  Level FlightAware Approximate
Fri 12:21:00 AM -10.9712 142.4707 332° Northwest  Level FlightAware Approximate
Fri 12:22:00 AM -10.9444 142.4535 332° Northwest  Level Estimated
Fri 12:23:00 AM -10.9444 142.4535 138° Southeast  Level Estimated
Fri 12:24:00 AM -10.9444 142.4535 138° Southeast  Level Estimated
Fri 12:25:00 AM -10.9444 142.4535 138° Southeast  Level Estimated
Fri 12:26:00 AM -10.9444 142.4535 138° Southeast  Level Estimated
Fri 12:27:00 AM -10.9444 142.4535 331° Northwest  Level Estimated
Fri 12:28:00 AM -10.9444 142.4535 331° Northwest  Level Estimated
Fri 12:29:00 AM -10.9444 142.4535 331° Northwest  Level Estimated
Fri 12:30:00 AM -10.9444 142.4535 331° Northwest  Level Estimated
Fri 12:31:00 AM -10.9444 142.4535 331° Northwest  Level Estimated
Fri 12:32:00 AM -10.9444 142.4535 331° Northwest  Level Estimated
Fri 12:33:00 AM -10.9444 142.4535 331° Northwest  Level Estimated
Fri 12:34:00 AM -10.9444 142.4535 331° Northwest  Level Estimated
Fri 12:35:00 AM -10.9444 142.4535 331° Northwest  Level Estimated
Fri 12:36:00 AM -10.9444 142.4535 331° Northwest  Level Estimated
Fri 12:37:00 AM -10.9444 142.4535 331° Northwest  Level Estimated

Login

Don't have an account? Register now (free) for customized features, flight alerts, and more!